sensor_id;sensor_type;location;lat;lon;timestamp;temperature;humidity
46440;DHT22;32138;50.966;6.968;2022-10-16T00:00:19;16.50;93.50
46440;DHT22;32138;50.966;6.968;2022-10-16T00:02:19;16.50;93.80
46440;DHT22;32138;50.966;6.968;2022-10-16T00:04:20;16.50;93.60
46440;DHT22;32138;50.966;6.968;2022-10-16T00:06:21;16.50;93.40
46440;DHT22;32138;50.966;6.968;2022-10-16T00:08:22;16.60;93.60
46440;DHT22;32138;50.966;6.968;2022-10-16T00:10:23;16.60;93.60
46440;DHT22;32138;50.966;6.968;2022-10-16T00:12:24;16.60;93.40
46440;DHT22;32138;50.966;6.968;2022-10-16T00:14:25;16.50;93.40
46440;DHT22;32138;50.966;6.968;2022-10-16T00:16:27;16.50;93.40
46440;DHT22;32138;50.966;6.968;2022-10-16T00:18:29;16.60;93.30
46440;DHT22;32138;50.966;6.968;2022-10-16T00:20:29;16.50;93.40
46440;DHT22;32138;50.966;6.968;2022-10-16T00:22:32;16.50;93.30
46440;DHT22;32138;50.966;6.968;2022-10-16T00:24:33;16.60;93.40
46440;DHT22;32138;50.966;6.968;2022-10-16T00:26:35;16.60;93.30
46440;DHT22;32138;50.966;6.968;2022-10-16T00:28:37;16.60;93.30
46440;DHT22;32138;50.966;6.968;2022-10-16T00:30:38;16.60;93.40
46440;DHT22;32138;50.966;6.968;2022-10-16T00:32:39;16.60;93.30
46440;DHT22;32138;50.966;6.968;2022-10-16T00:34:40;16.60;93.20
46440;DHT22;32138;50.966;6.968;2022-10-16T00:36:40;16.50;93.30
46440;DHT22;32138;50.966;6.968;2022-10-16T00:38:41;16.50;93.30
46440;DHT22;32138;50.966;6.968;2022-10-16T00:40:43;16.50;93.20
46440;DHT22;32138;50.966;6.968;2022-10-16T00:42:43;16.50;93.30
46440;DHT22;32138;50.966;6.968;2022-10-16T00:44:51;16.50;93.30
46440;DHT22;32138;50.966;6.968;2022-10-16T00:46:54;16.50;93.30
46440;DHT22;32138;50.966;6.968;2022-10-16T00:49:12;16.50;93.30
46440;DHT22;32138;50.966;6.968;2022-10-16T00:51:14;16.40;93.20
46440;DHT22;32138;50.966;6.968;2022-10-16T00:53:15;16.30;93.40
46440;DHT22;32138;50.966;6.968;2022-10-16T00:55:17;16.40;93.50
46440;DHT22;32138;50.966;6.968;2022-10-16T00:57:19;16.30;93.50
46440;DHT22;32138;50.966;6.968;2022-10-16T00:59:31;16.30;93.70
46440;DHT22;32138;50.966;6.968;2022-10-16T01:01:34;16.30;93.50
46440;DHT22;32138;50.966;6.968;2022-10-16T01:03:36;16.30;93.50
46440;DHT22;32138;50.966;6.968;2022-10-16T01:05:50;16.30;93.50
46440;DHT22;32138;50.966;6.968;2022-10-16T01:08:18;16.30;93.40
46440;DHT22;32138;50.966;6.968;2022-10-16T01:10:35;16.10;93.50
46440;DHT22;32138;50.966;6.968;2022-10-16T01:12:47;16.30;93.50
46440;DHT22;32138;50.966;6.968;2022-10-16T01:15:08;16.20;93.40
46440;DHT22;32138;50.966;6.968;2022-10-16T01:17:17;16.30;93.40
46440;DHT22;32138;50.966;6.968;2022-10-16T01:19:38;16.30;93.30
46440;DHT22;32138;50.966;6.968;2022-10-16T01:21:43;16.20;93.40
46440;DHT22;32138;50.966;6.968;2022-10-16T01:24:15;16.30;93.50
46440;DHT22;32138;50.966;6.968;2022-10-16T01:26:52;16.40;93.40
46440;DHT22;32138;50.966;6.968;2022-10-16T01:29:14;16.30;93.40
46440;DHT22;32138;50.966;6.968;2022-10-16T01:31:20;16.20;93.30
46440;DHT22;32138;50.966;6.968;2022-10-16T01:33:37;16.20;93.40
46440;DHT22;32138;50.966;6.968;2022-10-16T01:35:44;16.20;93.50
46440;DHT22;32138;50.966;6.968;2022-10-16T01:40:11;16.10;93.60
46440;DHT22;32138;50.966;6.968;2022-10-16T01:42:24;16.20;93.70
46440;DHT22;32138;50.966;6.968;2022-10-16T01:44:32;16.30;93.50
46440;DHT22;32138;50.966;6.968;2022-10-16T01:46:36;16.30;93.50
46440;DHT22;32138;50.966;6.968;2022-10-16T01:48:39;16.30;93.70
46440;DHT22;32138;50.966;6.968;2022-10-16T01:50:43;16.20;93.60
46440;DHT22;32138;50.966;6.968;2022-10-16T01:52:48;16.20;93.50
46440;DHT22;32138;50.966;6.968;2022-10-16T01:54:52;16.30;93.40
46440;DHT22;32138;50.966;6.968;2022-10-16T01:56:56;16.30;93.30
46440;DHT22;32138;50.966;6.968;2022-10-16T01:59:06;16.30;93.20
46440;DHT22;32138;50.966;6.968;2022-10-16T02:01:11;16.30;93.10
46440;DHT22;32138;50.966;6.968;2022-10-16T02:03:16;16.30;93.10
46440;DHT22;32138;50.966;6.968;2022-10-16T02:05:26;16.30;93.00
46440;DHT22;32138;50.966;6.968;2022-10-16T02:07:29;16.30;92.70
46440;DHT22;32138;50.966;6.968;2022-10-16T02:09:33;16.30;92.90
46440;DHT22;32138;50.966;6.968;2022-10-16T02:11:34;16.30;92.90
46440;DHT22;32138;50.966;6.968;2022-10-16T02:13:48;16.30;93.00
46440;DHT22;32138;50.966;6.968;2022-10-16T02:15:52;16.40;92.70
46440;DHT22;32138;50.966;6.968;2022-10-16T02:17:52;16.30;92.90
46440;DHT22;32138;50.966;6.968;2022-10-16T02:19:55;16.30;92.80
46440;DHT22;32138;50.966;6.968;2022-10-16T02:22:00;16.30;92.70
46440;DHT22;32138;50.966;6.968;2022-10-16T02:26:39;16.20;92.90
46440;DHT22;32138;50.966;6.968;2022-10-16T02:28:48;16.20;93.00
46440;DHT22;32138;50.966;6.968;2022-10-16T02:31:03;16.30;93.00
46440;DHT22;32138;50.966;6.968;2022-10-16T02:33:07;16.30;92.80
46440;DHT22;32138;50.966;6.968;2022-10-16T02:35:10;16.20;92.80
46440;DHT22;32138;50.966;6.968;2022-10-16T02:37:12;16.30;92.90
46440;DHT22;32138;50.966;6.968;2022-10-16T02:39:13;16.30;92.70
46440;DHT22;32138;50.966;6.968;2022-10-16T02:41:15;16.20;92.20
46440;DHT22;32138;50.966;6.968;2022-10-16T02:43:16;16.20;93.00
46440;DHT22;32138;50.966;6.968;2022-10-16T02:45:17;16.20;92.70
46440;DHT22;32138;50.966;6.968;2022-10-16T02:47:18;16.20;92.70
46440;DHT22;32138;50.966;6.968;2022-10-16T02:49:19;16.30;92.60
46440;DHT22;32138;50.966;6.968;2022-10-16T02:51:20;16.30;92.60
46440;DHT22;32138;50.966;6.968;2022-10-16T02:53:20;16.30;92.60
46440;DHT22;32138;50.966;6.968;2022-10-16T02:55:21;16.20;92.60
46440;DHT22;32138;50.966;6.968;2022-10-16T02:57:22;16.30;92.40
46440;DHT22;32138;50.966;6.968;2022-10-16T02:59:22;16.30;92.40
46440;DHT22;32138;50.966;6.968;2022-10-16T03:01:23;16.30;92.40
46440;DHT22;32138;50.966;6.968;2022-10-16T03:03:24;16.30;92.30
46440;DHT22;32138;50.966;6.968;2022-10-16T03:05:25;16.30;92.40
46440;DHT22;32138;50.966;6.968;2022-10-16T03:07:25;16.30;92.50
46440;DHT22;32138;50.966;6.968;2022-10-16T03:09:26;16.30;92.50
46440;DHT22;32138;50.966;6.968;2022-10-16T03:11:27;16.20;92.40
46440;DHT22;32138;50.966;6.968;2022-10-16T03:13:28;16.20;92.40
46440;DHT22;32138;50.966;6.968;2022-10-16T03:15:29;16.20;92.30
46440;DHT22;32138;50.966;6.968;2022-10-16T03:17:31;16.20;92.40
46440;DHT22;32138;50.966;6.968;2022-10-16T03:19:32;16.10;92.60
46440;DHT22;32138;50.966;6.968;2022-10-16T03:21:33;16.10;92.40
46440;DHT22;32138;50.966;6.968;2022-10-16T03:23:33;16.20;92.30
46440;DHT22;32138;50.966;6.968;2022-10-16T03:25:34;16.10;92.30
46440;DHT22;32138;50.966;6.968;2022-10-16T03:27:35;16.10;92.30
46440;DHT22;32138;50.966;6.968;2022-10-16T03:29:36;16.00;92.40
46440;DHT22;32138;50.966;6.968;2022-10-16T03:31:37;16.10;92.50
46440;DHT22;32138;50.966;6.968;2022-10-16T03:33:38;16.10;92.20
46440;DHT22;32138;50.966;6.968;2022-10-16T03:35:38;16.10;92.30
46440;DHT22;32138;50.966;6.968;2022-10-16T03:37:39;16.10;92.30
46440;DHT22;32138;50.966;6.968;2022-10-16T03:39:40;16.00;92.30
46440;DHT22;32138;50.966;6.968;2022-10-16T03:41:41;16.10;92.20
46440;DHT22;32138;50.966;6.968;2022-10-16T03:43:42;16.10;92.40
46440;DHT22;32138;50.966;6.968;2022-10-16T03:45:43;16.10;92.20
46440;DHT22;32138;50.966;6.968;2022-10-16T03:47:43;16.10;91.90
46440;DHT22;32138;50.966;6.968;2022-10-16T03:49:44;16.00;92.20
46440;DHT22;32138;50.966;6.968;2022-10-16T03:51:45;16.10;92.20
46440;DHT22;32138;50.966;6.968;2022-10-16T03:53:46;16.10;92.00
46440;DHT22;32138;50.966;6.968;2022-10-16T03:55:47;16.10;92.00
46440;DHT22;32138;50.966;6.968;2022-10-16T03:57:48;16.10;92.00
46440;DHT22;32138;50.966;6.968;2022-10-16T03:59:48;16.00;92.00
46440;DHT22;32138;50.966;6.968;2022-10-16T04:01:49;16.00;92.10
46440;DHT22;32138;50.966;6.968;2022-10-16T04:03:50;16.00;92.20
46440;DHT22;32138;50.966;6.968;2022-10-16T04:05:50;16.00;91.70
46440;DHT22;32138;50.966;6.968;2022-10-16T04:07:51;16.00;92.10
46440;DHT22;32138;50.966;6.968;2022-10-16T04:09:52;16.00;92.00
46440;DHT22;32138;50.966;6.968;2022-10-16T04:11:53;16.10;92.10
46440;DHT22;32138;50.966;6.968;2022-10-16T04:13:54;16.10;92.00
46440;DHT22;32138;50.966;6.968;2022-10-16T04:15:55;16.10;92.00
46440;DHT22;32138;50.966;6.968;2022-10-16T04:17:56;16.10;91.80
46440;DHT22;32138;50.966;6.968;2022-10-16T04:19:56;16.00;91.90
46440;DHT22;32138;50.966;6.968;2022-10-16T04:21:57;16.00;92.10
46440;DHT22;32138;50.966;6.968;2022-10-16T04:23:58;16.10;92.10
46440;DHT22;32138;50.966;6.968;2022-10-16T04:25:59;16.00;92.10
46440;DHT22;32138;50.966;6.968;2022-10-16T04:28:00;16.00;92.50
46440;DHT22;32138;50.966;6.968;2022-10-16T04:30:01;16.10;92.20
46440;DHT22;32138;50.966;6.968;2022-10-16T04:32:02;16.10;92.20
46440;DHT22;32138;50.966;6.968;2022-10-16T04:34:03;16.10;92.00
46440;DHT22;32138;50.966;6.968;2022-10-16T04:36:04;16.00;92.20
46440;DHT22;32138;50.966;6.968;2022-10-16T04:38:04;16.00;92.30
46440;DHT22;32138;50.966;6.968;2022-10-16T04:40:06;16.00;92.30
46440;DHT22;32138;50.966;6.968;2022-10-16T04:42:07;16.00;92.30
46440;DHT22;32138;50.966;6.968;2022-10-16T04:44:07;16.00;92.30
46440;DHT22;32138;50.966;6.968;2022-10-16T04:46:08;16.10;92.30
46440;DHT22;32138;50.966;6.968;2022-10-16T04:48:10;16.00;92.40
46440;DHT22;32138;50.966;6.968;2022-10-16T04:50:11;16.00;92.50
46440;DHT22;32138;50.966;6.968;2022-10-16T04:52:12;16.00;92.50
46440;DHT22;32138;50.966;6.968;2022-10-16T04:54:12;16.10;92.50
46440;DHT22;32138;50.966;6.968;2022-10-16T04:56:13;16.00;92.50
46440;DHT22;32138;50.966;6.968;2022-10-16T04:58:15;16.00;92.70
46440;DHT22;32138;50.966;6.968;2022-10-16T05:00:16;16.10;92.70
46440;DHT22;32138;50.966;6.968;2022-10-16T05:02:17;16.10;92.60
46440;DHT22;32138;50.966;6.968;2022-10-16T05:04:18;16.10;92.60
46440;DHT22;32138;50.966;6.968;2022-10-16T05:06:18;16.10;92.80
46440;DHT22;32138;50.966;6.968;2022-10-16T05:08:19;16.10;92.80
46440;DHT22;32138;50.966;6.968;2022-10-16T05:10:20;16.10;92.80
46440;DHT22;32138;50.966;6.968;2022-10-16T05:12:21;16.10;92.80
46440;DHT22;32138;50.966;6.968;2022-10-16T05:14:21;16.00;92.80
46440;DHT22;32138;50.966;6.968;2022-10-16T05:16:22;16.10;92.90
46440;DHT22;32138;50.966;6.968;2022-10-16T05:18:23;16.00;92.90
46440;DHT22;32138;50.966;6.968;2022-10-16T05:20:23;16.10;93.00
46440;DHT22;32138;50.966;6.968;2022-10-16T05:22:24;16.10;93.00
46440;DHT22;32138;50.966;6.968;2022-10-16T05:24:25;16.10;93.10
46440;DHT22;32138;50.966;6.968;2022-10-16T05:26:26;16.10;93.10
46440;DHT22;32138;50.966;6.968;2022-10-16T05:28:28;16.10;93.10
46440;DHT22;32138;50.966;6.968;2022-10-16T05:30:29;16.10;93.10
46440;DHT22;32138;50.966;6.968;2022-10-16T05:32:30;16.10;93.20
46440;DHT22;32138;50.966;6.968;2022-10-16T05:34:31;16.20;93.20
46440;DHT22;32138;50.966;6.968;2022-10-16T05:36:31;16.10;93.20
46440;DHT22;32138;50.966;6.968;2022-10-16T05:38:33;16.20;93.20
46440;DHT22;32138;50.966;6.968;2022-10-16T05:40:34;16.10;93.30
46440;DHT22;32138;50.966;6.968;2022-10-16T05:42:35;16.10;93.40
46440;DHT22;32138;50.966;6.968;2022-10-16T05:44:36;16.20;93.40
46440;DHT22;32138;50.966;6.968;2022-10-16T05:46:39;16.10;93.50
46440;DHT22;32138;50.966;6.968;2022-10-16T05:48:40;16.10;93.50
46440;DHT22;32138;50.966;6.968;2022-10-16T05:50:41;16.10;93.60
46440;DHT22;32138;50.966;6.968;2022-10-16T05:52:42;16.10;93.60
46440;DHT22;32138;50.966;6.968;2022-10-16T05:54:42;16.00;93.80
46440;DHT22;32138;50.966;6.968;2022-10-16T05:56:43;15.90;93.80
46440;DHT22;32138;50.966;6.968;2022-10-16T05:58:44;16.00;93.90
46440;DHT22;32138;50.966;6.968;2022-10-16T06:00:52;16.00;93.90
46440;DHT22;32138;50.966;6.968;2022-10-16T06:02:53;16.20;93.80
46440;DHT22;32138;50.966;6.968;2022-10-16T06:04:54;16.20;93.60
46440;DHT22;32138;50.966;6.968;2022-10-16T06:06:58;16.20;93.60
46440;DHT22;32138;50.966;6.968;2022-10-16T06:09:00;16.10;93.60
46440;DHT22;32138;50.966;6.968;2022-10-16T06:11:03;16.20;93.70
46440;DHT22;32138;50.966;6.968;2022-10-16T06:13:05;16.10;93.50
46440;DHT22;32138;50.966;6.968;2022-10-16T06:15:06;16.10;93.70
46440;DHT22;32138;50.966;6.968;2022-10-16T06:17:07;16.00;93.80
46440;DHT22;32138;50.966;6.968;2022-10-16T06:19:08;16.10;93.70
46440;DHT22;32138;50.966;6.968;2022-10-16T06:21:12;16.20;93.60
46440;DHT22;32138;50.966;6.968;2022-10-16T06:23:23;16.10;93.60
46440;DHT22;32138;50.966;6.968;2022-10-16T06:25:24;16.00;93.70
46440;DHT22;32138;50.966;6.968;2022-10-16T06:27:25;16.00;93.80
46440;DHT22;32138;50.966;6.968;2022-10-16T06:29:26;16.00;93.90
46440;DHT22;32138;50.966;6.968;2022-10-16T06:31:28;15.90;94.00
46440;DHT22;32138;50.966;6.968;2022-10-16T06:33:31;15.90;93.90
46440;DHT22;32138;50.966;6.968;2022-10-16T06:35:32;16.10;93.90
46440;DHT22;32138;50.966;6.968;2022-10-16T06:37:32;16.20;93.90
46440;DHT22;32138;50.966;6.968;2022-10-16T06:39:33;16.20;93.90
46440;DHT22;32138;50.966;6.968;2022-10-16T06:41:34;16.20;93.80
46440;DHT22;32138;50.966;6.968;2022-10-16T06:43:35;16.10;93.90
46440;DHT22;32138;50.966;6.968;2022-10-16T06:45:36;16.10;94.00
46440;DHT22;32138;50.966;6.968;2022-10-16T06:47:36;16.10;94.00
46440;DHT22;32138;50.966;6.968;2022-10-16T06:49:37;16.00;94.20
46440;DHT22;32138;50.966;6.968;2022-10-16T06:51:38;16.10;94.20
46440;DHT22;32138;50.966;6.968;2022-10-16T06:53:49;16.10;94.00
46440;DHT22;32138;50.966;6.968;2022-10-16T06:55:51;16.20;94.20
46440;DHT22;32138;50.966;6.968;2022-10-16T06:57:52;16.30;94.10
46440;DHT22;32138;50.966;6.968;2022-10-16T06:59:52;16.30;94.00
46440;DHT22;32138;50.966;6.968;2022-10-16T07:01:53;16.30;94.10
46440;DHT22;32138;50.966;6.968;2022-10-16T07:03:54;16.20;94.00
46440;DHT22;32138;50.966;6.968;2022-10-16T07:05:55;16.30;94.00
46440;DHT22;32138;50.966;6.968;2022-10-16T07:07:56;16.30;94.00
46440;DHT22;32138;50.966;6.968;2022-10-16T07:09:57;16.30;94.00
46440;DHT22;32138;50.966;6.968;2022-10-16T07:11:58;16.30;94.00
46440;DHT22;32138;50.966;6.968;2022-10-16T07:13:59;16.20;94.10
46440;DHT22;32138;50.966;6.968;2022-10-16T07:18:07;16.30;93.90
46440;DHT22;32138;50.966;6.968;2022-10-16T07:20:09;16.40;94.00
46440;DHT22;32138;50.966;6.968;2022-10-16T07:22:09;16.40;93.90
46440;DHT22;32138;50.966;6.968;2022-10-16T07:24:13;16.60;93.80
46440;DHT22;32138;50.966;6.968;2022-10-16T07:26:15;16.60;93.60
46440;DHT22;32138;50.966;6.968;2022-10-16T07:28:16;16.50;93.60
46440;DHT22;32138;50.966;6.968;2022-10-16T07:30:16;16.60;93.60
46440;DHT22;32138;50.966;6.968;2022-10-16T07:32:17;16.20;94.20
46440;DHT22;32138;50.966;6.968;2022-10-16T07:34:19;16.00;94.50
46440;DHT22;32138;50.966;6.968;2022-10-16T07:36:22;16.10;94.70
46440;DHT22;32138;50.966;6.968;2022-10-16T07:38:22;16.10;94.60
46440;DHT22;32138;50.966;6.968;2022-10-16T07:40:24;16.10;94.50
46440;DHT22;32138;50.966;6.968;2022-10-16T07:42:27;16.20;94.30
46440;DHT22;32138;50.966;6.968;2022-10-16T07:44:28;16.10;93.80
46440;DHT22;32138;50.966;6.968;2022-10-16T07:46:29;16.20;93.80
46440;DHT22;32138;50.966;6.968;2022-10-16T07:48:33;16.30;93.70
46440;DHT22;32138;50.966;6.968;2022-10-16T07:50:34;16.50;93.40
46440;DHT22;32138;50.966;6.968;2022-10-16T07:52:34;16.60;93.00
46440;DHT22;32138;50.966;6.968;2022-10-16T07:54:35;16.70;92.90
46440;DHT22;32138;50.966;6.968;2022-10-16T07:56:36;16.90;92.60
46440;DHT22;32138;50.966;6.968;2022-10-16T07:58:37;17.10;92.30
46440;DHT22;32138;50.966;6.968;2022-10-16T08:00:38;17.20;92.10
46440;DHT22;32138;50.966;6.968;2022-10-16T08:02:40;17.50;91.80
46440;DHT22;32138;50.966;6.968;2022-10-16T08:04:41;17.60;91.40
46440;DHT22;32138;50.966;6.968;2022-10-16T08:06:41;17.90;90.90
46440;DHT22;32138;50.966;6.968;2022-10-16T08:08:42;18.10;90.50
46440;DHT22;32138;50.966;6.968;2022-10-16T08:10:44;18.30;90.50
46440;DHT22;32138;50.966;6.968;2022-10-16T08:12:45;18.90;90.00
46440;DHT22;32138;50.966;6.968;2022-10-16T08:14:46;18.60;89.20
46440;DHT22;32138;50.966;6.968;2022-10-16T08:16:46;18.50;89.20
46440;DHT22;32138;50.966;6.968;2022-10-16T08:18:47;18.80;89.40
46440;DHT22;32138;50.966;6.968;2022-10-16T08:20:54;19.20;87.00
46440;DHT22;32138;50.966;6.968;2022-10-16T08:22:56;19.40;86.50
46440;DHT22;32138;50.966;6.968;2022-10-16T08:24:58;20.10;85.10
46440;DHT22;32138;50.966;6.968;2022-10-16T08:26:58;21.20;82.70
46440;DHT22;32138;50.966;6.968;2022-10-16T08:28:59;21.20;81.70
46440;DHT22;32138;50.966;6.968;2022-10-16T08:31:11;20.50;81.80
46440;DHT22;32138;50.966;6.968;2022-10-16T08:33:12;20.70;82.20
46440;DHT22;32138;50.966;6.968;2022-10-16T08:35:14;20.70;81.30
46440;DHT22;32138;50.966;6.968;2022-10-16T08:37:16;20.10;81.70
46440;DHT22;32138;50.966;6.968;2022-10-16T08:39:16;19.80;82.70
46440;DHT22;32138;50.966;6.968;2022-10-16T08:41:29;19.60;84.10
46440;DHT22;32138;50.966;6.968;2022-10-16T08:48:26;20.90;80.20
46440;DHT22;32138;50.966;6.968;2022-10-16T08:50:32;21.70;77.70
46440;DHT22;32138;50.966;6.968;2022-10-16T08:52:35;21.30;78.90
46440;DHT22;32138;50.966;6.968;2022-10-16T08:54:45;22.40;74.70
46440;DHT22;32138;50.966;6.968;2022-10-16T08:56:48;22.20;74.10
46440;DHT22;32138;50.966;6.968;2022-10-16T08:58:49;21.30;77.50
46440;DHT22;32138;50.966;6.968;2022-10-16T09:00:57;21.10;77.60
46440;DHT22;32138;50.966;6.968;2022-10-16T09:07:39;20.90;78.90
46440;DHT22;32138;50.966;6.968;2022-10-16T09:15:42;20.50;78.30
46440;DHT22;32138;50.966;6.968;2022-10-16T09:17:53;20.90;77.80
46440;DHT22;32138;50.966;6.968;2022-10-16T09:22:16;21.00;76.20
46440;DHT22;32138;50.966;6.968;2022-10-16T09:24:20;21.40;75.70
46440;DHT22;32138;50.966;6.968;2022-10-16T09:26:24;21.40;74.90
46440;DHT22;32138;50.966;6.968;2022-10-16T09:28:25;20.60;76.30
46440;DHT22;32138;50.966;6.968;2022-10-16T09:30:28;20.00;78.20
46440;DHT22;32138;50.966;6.968;2022-10-16T09:32:32;20.10;79.00
46440;DHT22;32138;50.966;6.968;2022-10-16T09:34:36;20.20;78.80
46440;DHT22;32138;50.966;6.968;2022-10-16T09:36:43;20.20;78.80
46440;DHT22;32138;50.966;6.968;2022-10-16T09:38:45;19.90;79.20
46440;DHT22;32138;50.966;6.968;2022-10-16T09:40:46;20.00;80.30
46440;DHT22;32138;50.966;6.968;2022-10-16T09:42:46;19.70;80.80
46440;DHT22;32138;50.966;6.968;2022-10-16T09:44:50;19.40;80.10
46440;DHT22;32138;50.966;6.968;2022-10-16T10:11:57;19.40;78.80
46440;DHT22;32138;50.966;6.968;2022-10-16T10:16:25;19.90;77.10
46440;DHT22;32138;50.966;6.968;2022-10-16T10:18:26;20.40;76.30
46440;DHT22;32138;50.966;6.968;2022-10-16T10:22:50;20.20;75.80
46440;DHT22;32138;50.966;6.968;2022-10-16T10:27:16;20.70;74.30
46440;DHT22;32138;50.966;6.968;2022-10-16T10:29:34;20.40;74.80
46440;DHT22;32138;50.966;6.968;2022-10-16T10:31:52;20.30;75.40
46440;DHT22;32138;50.966;6.968;2022-10-16T10:34:23;20.30;76.20
46440;DHT22;32138;50.966;6.968;2022-10-16T10:36:35;20.10;76.10
46440;DHT22;32138;50.966;6.968;2022-10-16T10:38:53;19.90;76.30
46440;DHT22;32138;50.966;6.968;2022-10-16T10:44:07;19.80;77.50
46440;DHT22;32138;50.966;6.968;2022-10-16T10:46:17;19.70;77.70
46440;DHT22;32138;50.966;6.968;2022-10-16T10:51:14;19.80;77.50
46440;DHT22;32138;50.966;6.968;2022-10-16T10:53:47;19.80;78.00
46440;DHT22;32138;50.966;6.968;2022-10-16T11:05:40;19.60;78.20
46440;DHT22;32138;50.966;6.968;2022-10-16T11:08:10;19.80;78.80
46440;DHT22;32138;50.966;6.968;2022-10-16T11:10:24;19.80;77.50
46440;DHT22;32138;50.966;6.968;2022-10-16T11:12:30;19.70;78.00
46440;DHT22;32138;50.966;6.968;2022-10-16T11:17:18;19.70;77.00
46440;DHT22;32138;50.966;6.968;2022-10-16T11:20:05;19.60;76.90
46440;DHT22;32138;50.966;6.968;2022-10-16T11:24:45;19.70;77.20
46440;DHT22;32138;50.966;6.968;2022-10-16T11:26:52;19.80;76.60
46440;DHT22;32138;50.966;6.968;2022-10-16T11:28:55;19.90;77.60
46440;DHT22;32138;50.966;6.968;2022-10-16T11:31:02;20.10;78.50
46440;DHT22;32138;50.966;6.968;2022-10-16T11:33:44;20.10;77.10
46440;DHT22;32138;50.966;6.968;2022-10-16T11:35:53;20.10;77.50
46440;DHT22;32138;50.966;6.968;2022-10-16T11:38:31;20.10;77.30
46440;DHT22;32138;50.966;6.968;2022-10-16T11:40:34;20.00;76.80
46440;DHT22;32138;50.966;6.968;2022-10-16T11:42:44;19.80;76.10
46440;DHT22;32138;50.966;6.968;2022-10-16T11:50:20;19.70;76.70
46440;DHT22;32138;50.966;6.968;2022-10-16T11:52:51;19.60;76.80
46440;DHT22;32138;50.966;6.968;2022-10-16T11:55:01;19.60;76.20
46440;DHT22;32138;50.966;6.968;2022-10-16T11:57:57;19.60;76.70
46440;DHT22;32138;50.966;6.968;2022-10-16T11:59:48;19.60;76.30
46440;DHT22;32138;50.966;6.968;2022-10-16T12:02:20;19.60;76.10
46440;DHT22;32138;50.966;6.968;2022-10-16T12:04:50;19.60;76.70
46440;DHT22;32138;50.966;6.968;2022-10-16T12:07:08;19.60;76.80
46440;DHT22;32138;50.966;6.968;2022-10-16T12:09:21;19.60;76.10
46440;DHT22;32138;50.966;6.968;2022-10-16T12:11:34;19.70;75.90
46440;DHT22;32138;50.966;6.968;2022-10-16T12:13:39;19.90;75.60
46440;DHT22;32138;50.966;6.968;2022-10-16T12:15:41;20.00;75.80
46440;DHT22;32138;50.966;6.968;2022-10-16T12:17:42;19.90;76.30
46440;DHT22;32138;50.966;6.968;2022-10-16T12:19:57;20.10;74.20
46440;DHT22;32138;50.966;6.968;2022-10-16T12:22:18;20.10;73.80
46440;DHT22;32138;50.966;6.968;2022-10-16T12:24:32;20.00;74.30
46440;DHT22;32138;50.966;6.968;2022-10-16T12:26:39;19.90;74.30
46440;DHT22;32138;50.966;6.968;2022-10-16T12:28:42;19.90;75.20
46440;DHT22;32138;50.966;6.968;2022-10-16T12:30:43;20.00;75.40
46440;DHT22;32138;50.966;6.968;2022-10-16T12:32:58;20.00;75.80
46440;DHT22;32138;50.966;6.968;2022-10-16T12:35:02;20.10;75.20
46440;DHT22;32138;50.966;6.968;2022-10-16T12:37:34;20.20;74.90
46440;DHT22;32138;50.966;6.968;2022-10-16T12:39:36;20.30;73.90
46440;DHT22;32138;50.966;6.968;2022-10-16T12:41:37;20.30;74.00
46440;DHT22;32138;50.966;6.968;2022-10-16T12:43:44;20.30;73.70
46440;DHT22;32138;50.966;6.968;2022-10-16T12:45:46;20.30;73.40
46440;DHT22;32138;50.966;6.968;2022-10-16T12:47:50;20.30;73.70
46440;DHT22;32138;50.966;6.968;2022-10-16T12:49:54;20.30;73.30
46440;DHT22;32138;50.966;6.968;2022-10-16T12:51:56;20.20;73.30
46440;DHT22;32138;50.966;6.968;2022-10-16T12:54:30;20.20;73.30
46440;DHT22;32138;50.966;6.968;2022-10-16T12:56:51;20.10;72.50
46440;DHT22;32138;50.966;6.968;2022-10-16T12:59:20;20.00;73.30
46440;DHT22;32138;50.966;6.968;2022-10-16T13:06:45;19.80;74.90
46440;DHT22;32138;50.966;6.968;2022-10-16T13:09:10;19.80;74.30
46440;DHT22;32138;50.966;6.968;2022-10-16T13:18:07;19.90;74.90
46440;DHT22;32138;50.966;6.968;2022-10-16T13:27:34;19.90;78.20
46440;DHT22;32138;50.966;6.968;2022-10-16T13:29:42;20.00;76.10
46440;DHT22;32138;50.966;6.968;2022-10-16T13:31:44;19.90;78.60
46440;DHT22;32138;50.966;6.968;2022-10-16T13:33:48;19.90;76.20
46440;DHT22;32138;50.966;6.968;2022-10-16T13:35:55;19.80;76.20
46440;DHT22;32138;50.966;6.968;2022-10-16T13:40:22;19.80;75.80
46440;DHT22;32138;50.966;6.968;2022-10-16T13:42:26;19.80;76.60
46440;DHT22;32138;50.966;6.968;2022-10-16T13:44:38;19.80;75.90
46440;DHT22;32138;50.966;6.968;2022-10-16T13:46:41;19.80;75.70
46440;DHT22;32138;50.966;6.968;2022-10-16T13:48:42;19.80;76.10
46440;DHT22;32138;50.966;6.968;2022-10-16T13:50:44;19.80;75.90
46440;DHT22;32138;50.966;6.968;2022-10-16T13:52:45;19.90;76.20
46440;DHT22;32138;50.966;6.968;2022-10-16T13:54:46;19.90;76.20
46440;DHT22;32138;50.966;6.968;2022-10-16T13:56:46;20.00;75.90
46440;DHT22;32138;50.966;6.968;2022-10-16T13:59:02;20.10;75.20
46440;DHT22;32138;50.966;6.968;2022-10-16T14:01:15;20.20;75.00
46440;DHT22;32138;50.966;6.968;2022-10-16T14:03:17;20.10;74.30
46440;DHT22;32138;50.966;6.968;2022-10-16T14:05:18;20.10;74.60
46440;DHT22;32138;50.966;6.968;2022-10-16T14:07:31;20.00;75.00
46440;DHT22;32138;50.966;6.968;2022-10-16T14:09:33;20.00;75.20
46440;DHT22;32138;50.966;6.968;2022-10-16T14:11:44;20.00;75.50
46440;DHT22;32138;50.966;6.968;2022-10-16T14:13:47;20.00;76.10
46440;DHT22;32138;50.966;6.968;2022-10-16T14:15:50;19.90;76.70
46440;DHT22;32138;50.966;6.968;2022-10-16T14:17:52;19.90;77.50
46440;DHT22;32138;50.966;6.968;2022-10-16T14:19:59;19.90;77.50
46440;DHT22;32138;50.966;6.968;2022-10-16T14:22:02;19.90;77.30
46440;DHT22;32138;50.966;6.968;2022-10-16T14:24:13;19.80;77.20
46440;DHT22;32138;50.966;6.968;2022-10-16T14:26:27;19.80;76.70
46440;DHT22;32138;50.966;6.968;2022-10-16T14:28:29;19.80;77.30
46440;DHT22;32138;50.966;6.968;2022-10-16T14:30:34;19.80;78.10
46440;DHT22;32138;50.966;6.968;2022-10-16T14:32:36;19.90;79.80
46440;DHT22;32138;50.966;6.968;2022-10-16T14:34:40;20.00;81.10
46440;DHT22;32138;50.966;6.968;2022-10-16T14:36:53;20.00;77.50
46440;DHT22;32138;50.966;6.968;2022-10-16T14:38:59;19.90;77.60
46440;DHT22;32138;50.966;6.968;2022-10-16T14:41:05;19.90;77.60
46440;DHT22;32138;50.966;6.968;2022-10-16T14:43:06;19.90;77.90
46440;DHT22;32138;50.966;6.968;2022-10-16T14:45:09;19.80;78.40
46440;DHT22;32138;50.966;6.968;2022-10-16T14:47:17;19.80;78.20
46440;DHT22;32138;50.966;6.968;2022-10-16T14:49:26;19.80;78.40
46440;DHT22;32138;50.966;6.968;2022-10-16T14:51:29;19.90;78.70
46440;DHT22;32138;50.966;6.968;2022-10-16T14:53:29;19.90;78.60